sensor_id;sensor_type;location;lat;lon;timestamp;temperature;humidity
36352;DHT22;22382;44.768;17.206;2022-12-08T00:00:09;7.80;99.90
36352;DHT22;22382;44.768;17.206;2022-12-08T00:02:37;7.90;99.90
36352;DHT22;22382;44.768;17.206;2022-12-08T00:05:04;7.90;99.90
36352;DHT22;22382;44.768;17.206;2022-12-08T00:07:50;7.80;99.90
36352;DHT22;22382;44.768;17.206;2022-12-08T00:10:36;7.80;99.90
36352;DHT22;22382;44.768;17.206;2022-12-08T00:13:15;7.80;99.90
36352;DHT22;22382;44.768;17.206;2022-12-08T00:15:42;7.90;99.90
36352;DHT22;22382;44.768;17.206;2022-12-08T00:18:09;7.90;99.90
36352;DHT22;22382;44.768;17.206;2022-12-08T00:20:36;8.00;99.90
36352;DHT22;22382;44.768;17.206;2022-12-08T00:23:03;7.80;99.90
36352;DHT22;22382;44.768;17.206;2022-12-08T00:25:34;7.80;99.90
36352;DHT22;22382;44.768;17.206;2022-12-08T00:28:01;7.80;99.90
36352;DHT22;22382;44.768;17.206;2022-12-08T00:30:28;7.70;99.90
36352;DHT22;22382;44.768;17.206;2022-12-08T00:32:55;7.60;99.90
36352;DHT22;22382;44.768;17.206;2022-12-08T00:35:22;7.60;99.90
36352;DHT22;22382;44.768;17.206;2022-12-08T00:37:49;7.50;99.90
36352;DHT22;22382;44.768;17.206;2022-12-08T00:40:21;7.50;99.90
36352;DHT22;22382;44.768;17.206;2022-12-08T00:42:48;7.60;99.90
36352;DHT22;22382;44.768;17.206;2022-12-08T00:45:15;7.60;99.90
36352;DHT22;22382;44.768;17.206;2022-12-08T00:47:42;7.60;99.90
36352;DHT22;22382;44.768;17.206;2022-12-08T00:50:09;7.60;99.90
36352;DHT22;22382;44.768;17.206;2022-12-08T00:52:36;7.70;99.90
36352;DHT22;22382;44.768;17.206;2022-12-08T00:55:04;7.80;99.90
36352;DHT22;22382;44.768;17.206;2022-12-08T00:57:31;7.80;99.90
36352;DHT22;22382;44.768;17.206;2022-12-08T00:59:58;7.80;99.90
36352;DHT22;22382;44.768;17.206;2022-12-08T01:02:26;7.80;99.90
36352;DHT22;22382;44.768;17.206;2022-12-08T01:04:53;7.70;99.90
36352;DHT22;22382;44.768;17.206;2022-12-08T01:07:19;7.80;99.90
36352;DHT22;22382;44.768;17.206;2022-12-08T01:09:47;7.80;99.90
36352;DHT22;22382;44.768;17.206;2022-12-08T01:12:13;7.80;99.90
36352;DHT22;22382;44.768;17.206;2022-12-08T01:14:40;7.80;99.90
36352;DHT22;22382;44.768;17.206;2022-12-08T01:17:07;7.90;99.90
36352;DHT22;22382;44.768;17.206;2022-12-08T01:19:35;7.90;99.90
36352;DHT22;22382;44.768;17.206;2022-12-08T01:22:02;7.90;99.90
36352;DHT22;22382;44.768;17.206;2022-12-08T01:24:29;7.80;99.90
36352;DHT22;22382;44.768;17.206;2022-12-08T01:26:56;7.70;99.90
36352;DHT22;22382;44.768;17.206;2022-12-08T01:29:23;7.70;99.90
36352;DHT22;22382;44.768;17.206;2022-12-08T01:31:50;7.50;99.90
36352;DHT22;22382;44.768;17.206;2022-12-08T01:34:17;7.50;99.90
36352;DHT22;22382;44.768;17.206;2022-12-08T01:36:44;7.50;99.90
36352;DHT22;22382;44.768;17.206;2022-12-08T01:39:17;7.50;99.90
36352;DHT22;22382;44.768;17.206;2022-12-08T01:41:45;7.60;99.90
36352;DHT22;22382;44.768;17.206;2022-12-08T01:46:42;7.70;99.90
36352;DHT22;22382;44.768;17.206;2022-12-08T01:49:19;7.60;99.90
36352;DHT22;22382;44.768;17.206;2022-12-08T01:54:38;7.60;99.90
36352;DHT22;22382;44.768;17.206;2022-12-08T01:57:16;7.60;99.90
36352;DHT22;22382;44.768;17.206;2022-12-08T01:59:48;7.60;99.90
36352;DHT22;22382;44.768;17.206;2022-12-08T02:02:18;7.50;99.90
36352;DHT22;22382;44.768;17.206;2022-12-08T02:04:46;7.40;99.90
36352;DHT22;22382;44.768;17.206;2022-12-08T02:07:14;7.30;99.90
36352;DHT22;22382;44.768;17.206;2022-12-08T02:09:42;7.20;99.90
36352;DHT22;22382;44.768;17.206;2022-12-08T02:12:10;7.20;99.90
36352;DHT22;22382;44.768;17.206;2022-12-08T02:14:37;7.10;99.90
36352;DHT22;22382;44.768;17.206;2022-12-08T02:23:24;7.10;99.90
36352;DHT22;22382;44.768;17.206;2022-12-08T02:37:00;6.90;99.90
36352;DHT22;22382;44.768;17.206;2022-12-08T02:43:15;6.90;99.90
36352;DHT22;22382;44.768;17.206;2022-12-08T02:45:44;6.80;99.90
36352;DHT22;22382;44.768;17.206;2022-12-08T02:48:11;6.80;99.90
36352;DHT22;22382;44.768;17.206;2022-12-08T02:50:38;6.80;99.90
36352;DHT22;22382;44.768;17.206;2022-12-08T02:53:05;6.70;99.90
36352;DHT22;22382;44.768;17.206;2022-12-08T02:56:13;6.60;99.90
36352;DHT22;22382;44.768;17.206;2022-12-08T03:07:01;7.00;99.90
36352;DHT22;22382;44.768;17.206;2022-12-08T03:09:48;7.00;99.90
36352;DHT22;22382;44.768;17.206;2022-12-08T03:12:42;6.90;99.90
36352;DHT22;22382;44.768;17.206;2022-12-08T03:15:14;6.90;99.90
36352;DHT22;22382;44.768;17.206;2022-12-08T03:17:45;6.90;99.90
36352;DHT22;22382;44.768;17.206;2022-12-08T03:20:19;7.00;99.90
36352;DHT22;22382;44.768;17.206;2022-12-08T03:22:48;7.00;99.90
36352;DHT22;22382;44.768;17.206;2022-12-08T03:25:22;7.10;99.90
36352;DHT22;22382;44.768;17.206;2022-12-08T03:27:50;7.10;99.90
36352;DHT22;22382;44.768;17.206;2022-12-08T03:30:17;7.20;99.90
36352;DHT22;22382;44.768;17.206;2022-12-08T03:33:02;7.20;99.90
36352;DHT22;22382;44.768;17.206;2022-12-08T03:35:32;7.20;99.90
36352;DHT22;22382;44.768;17.206;2022-12-08T03:38:06;7.10;99.90
36352;DHT22;22382;44.768;17.206;2022-12-08T03:40:33;7.00;99.90
36352;DHT22;22382;44.768;17.206;2022-12-08T03:43:00;7.00;99.90
36352;DHT22;22382;44.768;17.206;2022-12-08T03:45:27;6.90;99.90
36352;DHT22;22382;44.768;17.206;2022-12-08T03:47:55;6.90;99.90
36352;DHT22;22382;44.768;17.206;2022-12-08T03:50:22;6.90;99.90
36352;DHT22;22382;44.768;17.206;2022-12-08T03:52:49;6.90;99.90
36352;DHT22;22382;44.768;17.206;2022-12-08T03:55:17;7.00;99.90
36352;DHT22;22382;44.768;17.206;2022-12-08T03:57:44;7.00;99.90
36352;DHT22;22382;44.768;17.206;2022-12-08T04:00:14;7.10;99.90
36352;DHT22;22382;44.768;17.206;2022-12-08T04:02:41;7.10;99.90
36352;DHT22;22382;44.768;17.206;2022-12-08T04:05:08;7.20;99.90
36352;DHT22;22382;44.768;17.206;2022-12-08T04:07:35;7.20;99.90
36352;DHT22;22382;44.768;17.206;2022-12-08T04:10:03;7.30;99.90
36352;DHT22;22382;44.768;17.206;2022-12-08T04:12:30;7.30;99.90
36352;DHT22;22382;44.768;17.206;2022-12-08T04:14:57;7.30;99.90
36352;DHT22;22382;44.768;17.206;2022-12-08T04:17:24;7.30;99.90
36352;DHT22;22382;44.768;17.206;2022-12-08T04:19:51;7.40;99.90
36352;DHT22;22382;44.768;17.206;2022-12-08T04:22:18;7.40;99.90
36352;DHT22;22382;44.768;17.206;2022-12-08T04:24:46;7.40;99.90
36352;DHT22;22382;44.768;17.206;2022-12-08T04:27:13;7.40;99.90
36352;DHT22;22382;44.768;17.206;2022-12-08T04:29:40;7.50;99.90
36352;DHT22;22382;44.768;17.206;2022-12-08T04:32:06;7.40;99.90
36352;DHT22;22382;44.768;17.206;2022-12-08T04:34:33;7.50;99.90
36352;DHT22;22382;44.768;17.206;2022-12-08T04:37:00;7.50;99.90
36352;DHT22;22382;44.768;17.206;2022-12-08T04:39:27;7.40;99.90
36352;DHT22;22382;44.768;17.206;2022-12-08T04:41:54;7.40;99.90
36352;DHT22;22382;44.768;17.206;2022-12-08T04:44:21;7.40;99.90
36352;DHT22;22382;44.768;17.206;2022-12-08T04:46:48;7.40;99.90
36352;DHT22;22382;44.768;17.206;2022-12-08T04:49:15;7.50;99.90
36352;DHT22;22382;44.768;17.206;2022-12-08T04:51:42;7.50;99.90
36352;DHT22;22382;44.768;17.206;2022-12-08T04:54:09;7.50;99.90
36352;DHT22;22382;44.768;17.206;2022-12-08T04:56:36;7.50;99.90
36352;DHT22;22382;44.768;17.206;2022-12-08T04:59:03;7.40;99.90
36352;DHT22;22382;44.768;17.206;2022-12-08T05:01:30;7.30;99.90
36352;DHT22;22382;44.768;17.206;2022-12-08T05:03:58;7.30;99.90
36352;DHT22;22382;44.768;17.206;2022-12-08T05:06:24;7.30;99.90
36352;DHT22;22382;44.768;17.206;2022-12-08T05:08:51;7.30;99.90
36352;DHT22;22382;44.768;17.206;2022-12-08T05:11:18;7.30;99.90
36352;DHT22;22382;44.768;17.206;2022-12-08T05:13:46;7.20;99.90
36352;DHT22;22382;44.768;17.206;2022-12-08T05:16:14;7.20;99.90
36352;DHT22;22382;44.768;17.206;2022-12-08T05:18:42;7.20;99.90
36352;DHT22;22382;44.768;17.206;2022-12-08T05:21:09;7.20;99.90
36352;DHT22;22382;44.768;17.206;2022-12-08T05:23:36;7.20;99.90
36352;DHT22;22382;44.768;17.206;2022-12-08T05:26:03;7.20;99.90
36352;DHT22;22382;44.768;17.206;2022-12-08T05:28:30;7.20;99.90
36352;DHT22;22382;44.768;17.206;2022-12-08T05:31:07;7.20;99.90
36352;DHT22;22382;44.768;17.206;2022-12-08T05:33:34;7.30;99.90
36352;DHT22;22382;44.768;17.206;2022-12-08T05:36:01;7.30;99.90
36352;DHT22;22382;44.768;17.206;2022-12-08T05:38:28;7.30;99.90
36352;DHT22;22382;44.768;17.206;2022-12-08T05:40:55;7.40;99.90
36352;DHT22;22382;44.768;17.206;2022-12-08T05:43:22;7.40;99.90
36352;DHT22;22382;44.768;17.206;2022-12-08T05:45:49;7.40;99.90
36352;DHT22;22382;44.768;17.206;2022-12-08T05:48:16;7.40;99.90
36352;DHT22;22382;44.768;17.206;2022-12-08T05:50:47;7.50;99.90
36352;DHT22;22382;44.768;17.206;2022-12-08T05:53:15;7.50;99.90
36352;DHT22;22382;44.768;17.206;2022-12-08T05:55:43;7.50;99.90
36352;DHT22;22382;44.768;17.206;2022-12-08T05:58:13;7.50;99.90
36352;DHT22;22382;44.768;17.206;2022-12-08T06:00:41;7.60;99.90
36352;DHT22;22382;44.768;17.206;2022-12-08T06:03:10;7.60;99.90
36352;DHT22;22382;44.768;17.206;2022-12-08T06:05:38;7.70;99.90
36352;DHT22;22382;44.768;17.206;2022-12-08T06:08:06;7.70;99.90
36352;DHT22;22382;44.768;17.206;2022-12-08T06:10:33;7.80;99.90
36352;DHT22;22382;44.768;17.206;2022-12-08T06:13:00;7.80;99.90
36352;DHT22;22382;44.768;17.206;2022-12-08T06:15:27;7.80;99.90
36352;DHT22;22382;44.768;17.206;2022-12-08T06:17:54;7.80;99.90
36352;DHT22;22382;44.768;17.206;2022-12-08T06:20:22;7.80;99.90
36352;DHT22;22382;44.768;17.206;2022-12-08T06:22:49;7.70;99.90
36352;DHT22;22382;44.768;17.206;2022-12-08T06:25:16;7.60;99.90
36352;DHT22;22382;44.768;17.206;2022-12-08T06:27:43;7.70;99.90
36352;DHT22;22382;44.768;17.206;2022-12-08T06:30:10;7.70;99.90
36352;DHT22;22382;44.768;17.206;2022-12-08T06:32:37;7.70;99.90
36352;DHT22;22382;44.768;17.206;2022-12-08T06:35:05;7.70;99.90
36352;DHT22;22382;44.768;17.206;2022-12-08T06:37:32;7.80;99.90
36352;DHT22;22382;44.768;17.206;2022-12-08T06:39:59;7.90;99.90
36352;DHT22;22382;44.768;17.206;2022-12-08T06:42:26;8.00;99.90
36352;DHT22;22382;44.768;17.206;2022-12-08T06:45:16;8.00;99.90
36352;DHT22;22382;44.768;17.206;2022-12-08T06:47:43;8.10;99.90
36352;DHT22;22382;44.768;17.206;2022-12-08T06:50:12;8.20;99.90
36352;DHT22;22382;44.768;17.206;2022-12-08T06:52:39;8.20;99.90
36352;DHT22;22382;44.768;17.206;2022-12-08T06:55:21;8.00;99.90
36352;DHT22;22382;44.768;17.206;2022-12-08T06:58:08;8.00;99.90
36352;DHT22;22382;44.768;17.206;2022-12-08T07:00:35;8.00;99.90
36352;DHT22;22382;44.768;17.206;2022-12-08T07:03:02;7.90;99.90
36352;DHT22;22382;44.768;17.206;2022-12-08T07:05:29;7.80;99.90
36352;DHT22;22382;44.768;17.206;2022-12-08T07:07:56;7.60;99.90
36352;DHT22;22382;44.768;17.206;2022-12-08T07:10:23;7.50;99.90
36352;DHT22;22382;44.768;17.206;2022-12-08T07:12:50;7.50;99.90
36352;DHT22;22382;44.768;17.206;2022-12-08T07:15:19;7.50;99.90
36352;DHT22;22382;44.768;17.206;2022-12-08T07:17:46;7.40;99.90
36352;DHT22;22382;44.768;17.206;2022-12-08T07:20:14;7.30;99.90
36352;DHT22;22382;44.768;17.206;2022-12-08T07:22:50;7.30;99.90
36352;DHT22;22382;44.768;17.206;2022-12-08T07:25:17;7.30;99.90
36352;DHT22;22382;44.768;17.206;2022-12-08T07:27:45;7.40;99.90
36352;DHT22;22382;44.768;17.206;2022-12-08T07:30:13;7.30;99.90
36352;DHT22;22382;44.768;17.206;2022-12-08T07:32:40;7.30;99.90
36352;DHT22;22382;44.768;17.206;2022-12-08T07:35:09;7.30;99.90
36352;DHT22;22382;44.768;17.206;2022-12-08T07:37:37;7.40;99.90
36352;DHT22;22382;44.768;17.206;2022-12-08T07:40:05;7.30;99.90
36352;DHT22;22382;44.768;17.206;2022-12-08T07:42:33;7.30;99.90
36352;DHT22;22382;44.768;17.206;2022-12-08T07:45:00;7.30;99.90
36352;DHT22;22382;44.768;17.206;2022-12-08T07:47:28;7.30;99.90
36352;DHT22;22382;44.768;17.206;2022-12-08T07:49:55;7.30;99.90
36352;DHT22;22382;44.768;17.206;2022-12-08T07:52:22;7.30;99.90
36352;DHT22;22382;44.768;17.206;2022-12-08T07:54:49;7.30;99.90
36352;DHT22;22382;44.768;17.206;2022-12-08T07:57:16;7.30;99.90
36352;DHT22;22382;44.768;17.206;2022-12-08T07:59:43;7.30;99.90
36352;DHT22;22382;44.768;17.206;2022-12-08T08:02:17;7.30;99.90
36352;DHT22;22382;44.768;17.206;2022-12-08T08:04:51;7.30;99.90
36352;DHT22;22382;44.768;17.206;2022-12-08T08:07:19;7.30;99.90
36352;DHT22;22382;44.768;17.206;2022-12-08T08:09:46;7.20;99.90
36352;DHT22;22382;44.768;17.206;2022-12-08T08:12:13;7.20;99.90
36352;DHT22;22382;44.768;17.206;2022-12-08T08:14:59;7.30;99.90
36352;DHT22;22382;44.768;17.206;2022-12-08T08:17:26;7.30;99.90
36352;DHT22;22382;44.768;17.206;2022-12-08T08:19:54;7.30;99.90
36352;DHT22;22382;44.768;17.206;2022-12-08T08:22:21;7.40;99.90
36352;DHT22;22382;44.768;17.206;2022-12-08T08:24:48;7.40;99.90
36352;DHT22;22382;44.768;17.206;2022-12-08T08:27:15;7.40;99.90
36352;DHT22;22382;44.768;17.206;2022-12-08T08:29:42;7.50;99.90
36352;DHT22;22382;44.768;17.206;2022-12-08T08:32:09;7.40;99.90
36352;DHT22;22382;44.768;17.206;2022-12-08T08:34:36;7.40;99.90
36352;DHT22;22382;44.768;17.206;2022-12-08T08:37:03;7.50;99.90
36352;DHT22;22382;44.768;17.206;2022-12-08T08:39:30;7.60;99.90
36352;DHT22;22382;44.768;17.206;2022-12-08T08:41:57;7.60;99.90
36352;DHT22;22382;44.768;17.206;2022-12-08T08:44:24;7.60;99.90
36352;DHT22;22382;44.768;17.206;2022-12-08T08:46:51;7.60;99.90
36352;DHT22;22382;44.768;17.206;2022-12-08T08:49:19;7.60;99.90
36352;DHT22;22382;44.768;17.206;2022-12-08T08:51:46;7.60;99.90
36352;DHT22;22382;44.768;17.206;2022-12-08T08:54:13;7.60;99.90
36352;DHT22;22382;44.768;17.206;2022-12-08T08:56:40;7.60;99.90
36352;DHT22;22382;44.768;17.206;2022-12-08T08:59:08;7.50;99.90
36352;DHT22;22382;44.768;17.206;2022-12-08T09:01:36;7.50;99.90
36352;DHT22;22382;44.768;17.206;2022-12-08T09:04:03;7.50;99.90
36352;DHT22;22382;44.768;17.206;2022-12-08T09:06:30;7.40;99.90
36352;DHT22;22382;44.768;17.206;2022-12-08T09:08:57;7.40;99.90
36352;DHT22;22382;44.768;17.206;2022-12-08T09:11:24;7.40;99.90
36352;DHT22;22382;44.768;17.206;2022-12-08T09:13:52;7.40;99.90
36352;DHT22;22382;44.768;17.206;2022-12-08T09:16:20;7.30;99.90
36352;DHT22;22382;44.768;17.206;2022-12-08T09:18:47;7.30;99.90
36352;DHT22;22382;44.768;17.206;2022-12-08T09:21:17;7.40;99.90
36352;DHT22;22382;44.768;17.206;2022-12-08T09:23:56;7.30;99.90
36352;DHT22;22382;44.768;17.206;2022-12-08T09:26:25;7.30;99.90
36352;DHT22;22382;44.768;17.206;2022-12-08T09:28:54;7.20;99.90
36352;DHT22;22382;44.768;17.206;2022-12-08T09:31:22;7.10;99.90
36352;DHT22;22382;44.768;17.206;2022-12-08T09:33:50;7.10;99.90
36352;DHT22;22382;44.768;17.206;2022-12-08T09:36:18;7.20;99.90
36352;DHT22;22382;44.768;17.206;2022-12-08T09:38:46;7.30;99.90
36352;DHT22;22382;44.768;17.206;2022-12-08T09:41:22;7.30;99.90
36352;DHT22;22382;44.768;17.206;2022-12-08T09:45:12;7.30;99.90
36352;DHT22;22382;44.768;17.206;2022-12-08T09:47:36;7.40;99.90
36352;DHT22;22382;44.768;17.206;2022-12-08T09:53:11;7.60;99.90
36352;DHT22;22382;44.768;17.206;2022-12-08T09:55:53;7.60;99.90
36352;DHT22;22382;44.768;17.206;2022-12-08T10:00:57;7.70;99.90
36352;DHT22;22382;44.768;17.206;2022-12-08T10:03:27;7.60;99.90
36352;DHT22;22382;44.768;17.206;2022-12-08T10:06:58;7.60;99.90
36352;DHT22;22382;44.768;17.206;2022-12-08T10:09:22;7.60;99.90
36352;DHT22;22382;44.768;17.206;2022-12-08T10:11:59;7.60;99.90
36352;DHT22;22382;44.768;17.206;2022-12-08T10:19:41;7.40;99.90
36352;DHT22;22382;44.768;17.206;2022-12-08T10:22:20;7.40;99.90
36352;DHT22;22382;44.768;17.206;2022-12-08T10:24:57;7.30;99.90
36352;DHT22;22382;44.768;17.206;2022-12-08T10:27:25;7.20;99.90
36352;DHT22;22382;44.768;17.206;2022-12-08T10:29:52;7.20;99.90
36352;DHT22;22382;44.768;17.206;2022-12-08T10:32:22;7.30;99.90
36352;DHT22;22382;44.768;17.206;2022-12-08T10:35:08;7.30;99.90
36352;DHT22;22382;44.768;17.206;2022-12-08T10:37:38;7.40;99.90
36352;DHT22;22382;44.768;17.206;2022-12-08T10:40:15;7.40;99.90
36352;DHT22;22382;44.768;17.206;2022-12-08T10:42:46;7.40;99.90
36352;DHT22;22382;44.768;17.206;2022-12-08T10:48:05;7.40;99.90
36352;DHT22;22382;44.768;17.206;2022-12-08T10:50:56;7.40;99.90
36352;DHT22;22382;44.768;17.206;2022-12-08T10:53:29;7.30;99.90
36352;DHT22;22382;44.768;17.206;2022-12-08T11:01:19;7.30;99.90
36352;DHT22;22382;44.768;17.206;2022-12-08T11:03:56;7.30;99.90
36352;DHT22;22382;44.768;17.206;2022-12-08T11:06:33;7.20;99.90
36352;DHT22;22382;44.768;17.206;2022-12-08T11:09:19;7.20;99.90
36352;DHT22;22382;44.768;17.206;2022-12-08T11:11:58;7.20;99.90
36352;DHT22;22382;44.768;17.206;2022-12-08T11:17:03;7.40;99.90
36352;DHT22;22382;44.768;17.206;2022-12-08T11:19:36;7.30;99.90
36352;DHT22;22382;44.768;17.206;2022-12-08T11:22:28;7.40;99.90
36352;DHT22;22382;44.768;17.206;2022-12-08T11:27:35;7.50;99.90
36352;DHT22;22382;44.768;17.206;2022-12-08T11:30:29;7.60;99.90
36352;DHT22;22382;44.768;17.206;2022-12-08T11:32:56;7.60;99.90
36352;DHT22;22382;44.768;17.206;2022-12-08T11:35:34;7.60;99.90
36352;DHT22;22382;44.768;17.206;2022-12-08T11:38:12;7.60;99.90
36352;DHT22;22382;44.768;17.206;2022-12-08T11:40:51;7.70;99.90
36352;DHT22;22382;44.768;17.206;2022-12-08T11:48:55;7.90;99.90
36352;DHT22;22382;44.768;17.206;2022-12-08T11:56:55;8.20;99.90
36352;DHT22;22382;44.768;17.206;2022-12-08T11:59:30;8.40;99.90
36352;DHT22;22382;44.768;17.206;2022-12-08T12:01:59;8.90;99.90
36352;DHT22;22382;44.768;17.206;2022-12-08T12:20:52;10.00;99.90
36352;DHT22;22382;44.768;17.206;2022-12-08T12:23:56;10.00;99.90
36352;DHT22;22382;44.768;17.206;2022-12-08T12:26:29;9.60;99.90
36352;DHT22;22382;44.768;17.206;2022-12-08T12:29:06;9.40;99.90
36352;DHT22;22382;44.768;17.206;2022-12-08T12:31:39;9.40;99.90
36352;DHT22;22382;44.768;17.206;2022-12-08T12:34:16;9.50;99.90
36352;DHT22;22382;44.768;17.206;2022-12-08T12:36:50;9.50;99.90
36352;DHT22;22382;44.768;17.206;2022-12-08T12:39:22;9.60;99.90
36352;DHT22;22382;44.768;17.206;2022-12-08T12:41:56;9.60;99.90
36352;DHT22;22382;44.768;17.206;2022-12-08T12:46:57;9.30;99.90
36352;DHT22;22382;44.768;17.206;2022-12-08T12:54:45;10.10;99.90
36352;DHT22;22382;44.768;17.206;2022-12-08T12:57:40;10.30;99.90
36352;DHT22;22382;44.768;17.206;2022-12-08T13:00:22;10.10;99.90
36352;DHT22;22382;44.768;17.206;2022-12-08T13:02:51;9.90;99.90
36352;DHT22;22382;44.768;17.206;2022-12-08T13:08:02;10.40;99.90
36352;DHT22;22382;44.768;17.206;2022-12-08T13:15:40;10.90;99.90
36352;DHT22;22382;44.768;17.206;2022-12-08T13:18:40;10.90;99.90
36352;DHT22;22382;44.768;17.206;2022-12-08T13:31:52;10.10;99.90
36352;DHT22;22382;44.768;17.206;2022-12-08T13:34:48;10.00;99.90
36352;DHT22;22382;44.768;17.206;2022-12-08T13:37:31;10.00;99.90
36352;DHT22;22382;44.768;17.206;2022-12-08T13:40:21;9.90;99.90
36352;DHT22;22382;44.768;17.206;2022-12-08T13:45:46;9.50;99.90
36352;DHT22;22382;44.768;17.206;2022-12-08T13:48:47;9.40;99.90
36352;DHT22;22382;44.768;17.206;2022-12-08T13:51:41;9.20;99.90
36352;DHT22;22382;44.768;17.206;2022-12-08T13:54:39;8.90;99.90
36352;DHT22;22382;44.768;17.206;2022-12-08T13:57:31;8.80;99.90
36352;DHT22;22382;44.768;17.206;2022-12-08T14:00:00;8.80;99.90
36352;DHT22;22382;44.768;17.206;2022-12-08T14:02:36;8.80;99.90
36352;DHT22;22382;44.768;17.206;2022-12-08T14:05:09;8.80;99.90
36352;DHT22;22382;44.768;17.206;2022-12-08T14:07:50;8.70;99.90
36352;DHT22;22382;44.768;17.206;2022-12-08T14:10:22;8.70;99.90
36352;DHT22;22382;44.768;17.206;2022-12-08T14:12:58;8.80;99.90
36352;DHT22;22382;44.768;17.206;2022-12-08T14:15:27;8.80;99.90
36352;DHT22;22382;44.768;17.206;2022-12-08T14:18:02;8.80;99.90
36352;DHT22;22382;44.768;17.206;2022-12-08T14:20:31;8.70;99.90
36352;DHT22;22382;44.768;17.206;2022-12-08T14:23:18;8.70;99.90
36352;DHT22;22382;44.768;17.206;2022-12-08T14:25:46;8.50;99.90
36352;DHT22;22382;44.768;17.206;2022-12-08T14:28:13;8.50;99.90
36352;DHT22;22382;44.768;17.206;2022-12-08T14:30:40;8.50;99.90
36352;DHT22;22382;44.768;17.206;2022-12-08T14:33:13;8.50;99.90
36352;DHT22;22382;44.768;17.206;2022-12-08T14:35:49;8.30;99.90
36352;DHT22;22382;44.768;17.206;2022-12-08T14:38:18;8.30;99.90
36352;DHT22;22382;44.768;17.206;2022-12-08T14:41:06;8.40;99.90
36352;DHT22;22382;44.768;17.206;2022-12-08T14:43:34;8.30;99.90
36352;DHT22;22382;44.768;17.206;2022-12-08T14:46:11;8.40;99.90
36352;DHT22;22382;44.768;17.206;2022-12-08T14:48:44;8.30;99.90
36352;DHT22;22382;44.768;17.206;2022-12-08T14:54:07;8.30;99.90
36352;DHT22;22382;44.768;17.206;2022-12-08T14:56:35;8.30;99.90
36352;DHT22;22382;44.768;17.206;2022-12-08T14:59:27;8.30;99.90
36352;DHT22;22382;44.768;17.206;2022-12-08T15:04:46;8.30;99.90
36352;DHT22;22382;44.768;17.206;2022-12-08T15:07:21;8.30;99.90
36352;DHT22;22382;44.768;17.206;2022-12-08T15:12:33;8.30;99.90
36352;DHT22;22382;44.768;17.206;2022-12-08T15:15:19;8.20;99.90
36352;DHT22;22382;44.768;17.206;2022-12-08T15:25:48;8.10;99.90
36352;DHT22;22382;44.768;17.206;2022-12-08T15:28:20;8.10;99.90
36352;DHT22;22382;44.768;17.206;2022-12-08T15:30:55;8.10;99.90
36352;DHT22;22382;44.768;17.206;2022-12-08T15:33:23;8.00;99.90
36352;DHT22;22382;44.768;17.206;2022-12-08T15:35:50;8.00;99.90
36352;DHT22;22382;44.768;17.206;2022-12-08T15:38:19;7.90;99.90
36352;DHT22;22382;44.768;17.206;2022-12-08T15:40:47;7.90;99.90
36352;DHT22;22382;44.768;17.206;2022-12-08T15:43:14;7.90;99.90
36352;DHT22;22382;44.768;17.206;2022-12-08T15:45:41;8.00;99.90
36352;DHT22;22382;44.768;17.206;2022-12-08T15:48:25;7.90;99.90
36352;DHT22;22382;44.768;17.206;2022-12-08T15:50:53;7.90;99.90
36352;DHT22;22382;44.768;17.206;2022-12-08T15:53:20;7.80;99.90
36352;DHT22;22382;44.768;17.206;2022-12-08T15:55:48;7.80;99.90
36352;DHT22;22382;44.768;17.206;2022-12-08T15:58:36;7.80;99.90
36352;DHT22;22382;44.768;17.206;2022-12-08T16:01:22;7.80;99.90
36352;DHT22;22382;44.768;17.206;2022-12-08T16:03:49;7.70;99.90
36352;DHT22;22382;44.768;17.206;2022-12-08T16:06:37;7.70;99.90
36352;DHT22;22382;44.768;17.206;2022-12-08T16:11:52;7.80;99.90
36352;DHT22;22382;44.768;17.206;2022-12-08T16:14:38;7.80;99.90
36352;DHT22;22382;44.768;17.206;2022-12-08T16:17:26;7.80;99.90
36352;DHT22;22382;44.768;17.206;2022-12-08T16:19:54;7.90;99.90
36352;DHT22;22382;44.768;17.206;2022-12-08T16:22:23;7.90;99.90
36352;DHT22;22382;44.768;17.206;2022-12-08T16:25:11;7.90;99.90
36352;DHT22;22382;44.768;17.206;2022-12-08T16:27:49;7.90;99.90
36352;DHT22;22382;44.768;17.206;2022-12-08T16:30:36;7.90;99.90
36352;DHT22;22382;44.768;17.206;2022-12-08T16:33:03;7.90;99.90
36352;DHT22;22382;44.768;17.206;2022-12-08T16:35:30;7.90;99.90
36352;DHT22;22382;44.768;17.206;2022-12-08T16:37:57;8.00;99.90
36352;DHT22;22382;44.768;17.206;2022-12-08T16:40:24;8.00;99.90
36352;DHT22;22382;44.768;17.206;2022-12-08T16:42:51;8.00;99.90
36352;DHT22;22382;44.768;17.206;2022-12-08T16:45:26;8.00;99.90
36352;DHT22;22382;44.768;17.206;2022-12-08T16:47:58;8.10;99.90
36352;DHT22;22382;44.768;17.206;2022-12-08T16:50:31;8.10;99.90
36352;DHT22;22382;44.768;17.206;2022-12-08T16:53:03;8.10;99.90
36352;DHT22;22382;44.768;17.206;2022-12-08T16:55:31;8.10;99.90
36352;DHT22;22382;44.768;17.206;2022-12-08T16:57:59;8.10;99.90
36352;DHT22;22382;44.768;17.206;2022-12-08T17:00:28;8.10;99.90
36352;DHT22;22382;44.768;17.206;2022-12-08T17:02:59;8.10;99.90
36352;DHT22;22382;44.768;17.206;2022-12-08T17:05:26;8.10;99.90
36352;DHT22;22382;44.768;17.206;2022-12-08T17:07:53;8.10;99.90
36352;DHT22;22382;44.768;17.206;2022-12-08T17:10:24;8.00;99.90
36352;DHT22;22382;44.768;17.206;2022-12-08T17:12:52;8.00;99.90
36352;DHT22;22382;44.768;17.206;2022-12-08T17:15:21;8.10;99.90
36352;DHT22;22382;44.768;17.206;2022-12-08T17:17:49;8.00;99.90
36352;DHT22;22382;44.768;17.206;2022-12-08T17:20:24;7.90;99.90
36352;DHT22;22382;44.768;17.206;2022-12-08T17:22:54;7.90;99.90
36352;DHT22;22382;44.768;17.206;2022-12-08T17:25:22;7.90;99.90
36352;DHT22;22382;44.768;17.206;2022-12-08T17:27:49;7.90;99.90
36352;DHT22;22382;44.768;17.206;2022-12-08T17:30:17;7.90;99.90
36352;DHT22;22382;44.768;17.206;2022-12-08T17:32:44;7.90;99.90
36352;DHT22;22382;44.768;17.206;2022-12-08T17:35:12;7.90;99.90
36352;DHT22;22382;44.768;17.206;2022-12-08T17:37:40;8.00;99.90
36352;DHT22;22382;44.768;17.206;2022-12-08T17:40:08;8.00;99.90
36352;DHT22;22382;44.768;17.206;2022-12-08T17:42:35;8.00;99.90
36352;DHT22;22382;44.768;17.206;2022-12-08T17:45:06;8.00;99.90
36352;DHT22;22382;44.768;17.206;2022-12-08T17:47:34;8.10;99.90
36352;DHT22;22382;44.768;17.206;2022-12-08T17:50:01;8.10;99.90
36352;DHT22;22382;44.768;17.206;2022-12-08T17:52:29;8.10;99.90
36352;DHT22;22382;44.768;17.206;2022-12-08T17:54:56;8.20;99.90
36352;DHT22;22382;44.768;17.206;2022-12-08T17:57:23;8.20;99.90
36352;DHT22;22382;44.768;17.206;2022-12-08T17:59:50;8.20;99.90
36352;DHT22;22382;44.768;17.206;2022-12-08T18:02:17;8.20;99.90
36352;DHT22;22382;44.768;17.206;2022-12-08T18:04:44;8.20;99.90
36352;DHT22;22382;44.768;17.206;2022-12-08T18:07:11;8.30;99.90
36352;DHT22;22382;44.768;17.206;2022-12-08T18:09:38;8.30;99.90